sensor_id;sensor_type;location;lat;lon;timestamp;pressure;altitude;pressure_sealevel;temperature;humidity
23339;BME280;11841;49.368;20.962;2023-12-20T00:02:15;95529.56;;;1.42;87.17
23339;BME280;11841;49.368;20.962;2023-12-20T00:05:01;95529.25;;;1.37;87.05
23339;BME280;11841;49.368;20.962;2023-12-20T00:07:46;95530.72;;;1.40;87.30
23339;BME280;11841;49.368;20.962;2023-12-20T00:10:32;95511.94;;;1.36;87.16
23339;BME280;11841;49.368;20.962;2023-12-20T00:13:18;95516.03;;;1.39;87.53
23339;BME280;11841;49.368;20.962;2023-12-20T00:16:03;95511.13;;;1.44;86.90
23339;BME280;11841;49.368;20.962;2023-12-20T00:18:49;95515.19;;;1.46;87.13
23339;BME280;11841;49.368;20.962;2023-12-20T00:21:34;95513.56;;;1.45;86.92
23339;BME280;11841;49.368;20.962;2023-12-20T00:24:20;95507.03;;;1.41;86.99
23339;BME280;11841;49.368;20.962;2023-12-20T00:27:05;95498.88;;;1.44;87.05
23339;BME280;11841;49.368;20.962;2023-12-20T00:29:50;95495.09;;;1.47;86.75
23339;BME280;11841;49.368;20.962;2023-12-20T00:32:36;95496.59;;;1.49;86.69
23339;BME280;11841;49.368;20.962;2023-12-20T00:35:21;95489.22;;;1.45;86.38
23339;BME280;11841;49.368;20.962;2023-12-20T00:38:07;95485.81;;;1.44;86.41
23339;BME280;11841;49.368;20.962;2023-12-20T00:40:53;95475.22;;;1.30;86.43
23339;BME280;11841;49.368;20.962;2023-12-20T00:43:39;95482.91;;;1.23;86.87
23339;BME280;11841;49.368;20.962;2023-12-20T00:46:24;95474.91;;;1.24;86.75
23339;BME280;11841;49.368;20.962;2023-12-20T00:49:09;95470.16;;;1.28;86.95
23339;BME280;11841;49.368;20.962;2023-12-20T00:51:55;95460.88;;;1.26;86.96
23339;BME280;11841;49.368;20.962;2023-12-20T00:54:40;95466.41;;;1.22;86.66
23339;BME280;11841;49.368;20.962;2023-12-20T00:57:25;95465.63;;;1.22;86.86
23339;BME280;11841;49.368;20.962;2023-12-20T01:00:11;95457.47;;;1.17;86.90
23339;BME280;11841;49.368;20.962;2023-12-20T01:02:58;95466.09;;;1.17;86.88
23339;BME280;11841;49.368;20.962;2023-12-20T01:05:43;95451.94;;;1.12;86.70
23339;BME280;11841;49.368;20.962;2023-12-20T01:08:28;95453.19;;;1.24;87.30
23339;BME280;11841;49.368;20.962;2023-12-20T01:11:14;95450.25;;;1.35;86.79
23339;BME280;11841;49.368;20.962;2023-12-20T01:13:59;95445.03;;;1.27;86.08
23339;BME280;11841;49.368;20.962;2023-12-20T01:16:44;95437.53;;;1.24;86.47
23339;BME280;11841;49.368;20.962;2023-12-20T01:19:30;95434.09;;;1.15;86.17
23339;BME280;11841;49.368;20.962;2023-12-20T01:22:15;95431.03;;;1.12;86.23
23339;BME280;11841;49.368;20.962;2023-12-20T01:25:01;95439.19;;;1.09;86.01
23339;BME280;11841;49.368;20.962;2023-12-20T01:27:47;95436.56;;;1.09;86.31
23339;BME280;11841;49.368;20.962;2023-12-20T01:30:33;95416.34;;;1.11;86.13
23339;BME280;11841;49.368;20.962;2023-12-20T01:33:18;95434.44;;;1.12;86.16
23339;BME280;11841;49.368;20.962;2023-12-20T01:36:04;95431.66;;;1.14;86.24
23339;BME280;11841;49.368;20.962;2023-12-20T01:38:49;95423.34;;;1.10;85.57
23339;BME280;11841;49.368;20.962;2023-12-20T01:41:34;95422.06;;;1.14;85.64
23339;BME280;11841;49.368;20.962;2023-12-20T01:44:20;95412.06;;;1.26;85.95
23339;BME280;11841;49.368;20.962;2023-12-20T01:47:05;95411.72;;;1.29;85.43
23339;BME280;11841;49.368;20.962;2023-12-20T01:49:51;95405.38;;;1.32;84.88
23339;BME280;11841;49.368;20.962;2023-12-20T01:52:36;95390.19;;;1.35;85.51
23339;BME280;11841;49.368;20.962;2023-12-20T01:55:22;95386.56;;;1.36;85.25
23339;BME280;11841;49.368;20.962;2023-12-20T01:58:09;95376.44;;;1.41;84.93
23339;BME280;11841;49.368;20.962;2023-12-20T02:00:55;95358.44;;;1.46;84.62
23339;BME280;11841;49.368;20.962;2023-12-20T02:03:41;95363.66;;;1.46;84.51
23339;BME280;11841;49.368;20.962;2023-12-20T02:06:31;95351.25;;;1.48;84.62
23339;BME280;11841;49.368;20.962;2023-12-20T02:09:19;95358.44;;;1.46;84.31
23339;BME280;11841;49.368;20.962;2023-12-20T02:12:04;95353.69;;;1.50;84.66
23339;BME280;11841;49.368;20.962;2023-12-20T02:14:50;95351.38;;;1.55;84.17
23339;BME280;11841;49.368;20.962;2023-12-20T02:17:36;95354.88;;;1.47;83.72
23339;BME280;11841;49.368;20.962;2023-12-20T02:20:22;95333.63;;;1.50;84.09
23339;BME280;11841;49.368;20.962;2023-12-20T02:23:07;95331.31;;;1.55;84.11
23339;BME280;11841;49.368;20.962;2023-12-20T02:25:53;95327.09;;;1.54;83.88
23339;BME280;11841;49.368;20.962;2023-12-20T02:28:38;95326.91;;;1.56;83.57
23339;BME280;11841;49.368;20.962;2023-12-20T02:31:24;95311.72;;;1.59;83.47
23339;BME280;11841;49.368;20.962;2023-12-20T02:34:09;95333.88;;;1.63;83.29
23339;BME280;11841;49.368;20.962;2023-12-20T02:36:54;95324.25;;;1.64;82.97
23339;BME280;11841;49.368;20.962;2023-12-20T02:39:40;95314.97;;;1.61;83.11
23339;BME280;11841;49.368;20.962;2023-12-20T02:42:25;95325.91;;;1.57;82.89
23339;BME280;11841;49.368;20.962;2023-12-20T02:45:10;95324.47;;;1.54;83.30
23339;BME280;11841;49.368;20.962;2023-12-20T02:47:56;95321.69;;;1.56;83.32
23339;BME280;11841;49.368;20.962;2023-12-20T02:50:41;95304.59;;;1.45;82.77
23339;BME280;11841;49.368;20.962;2023-12-20T02:53:27;95315.38;;;1.42;83.22
23339;BME280;11841;49.368;20.962;2023-12-20T02:56:12;95310.50;;;1.39;83.03
23339;BME280;11841;49.368;20.962;2023-12-20T02:58:58;95312.13;;;1.40;83.23
23339;BME280;11841;49.368;20.962;2023-12-20T03:01:45;95309.00;;;1.45;83.25
23339;BME280;11841;49.368;20.962;2023-12-20T03:04:31;95301.34;;;1.43;83.14
23339;BME280;11841;49.368;20.962;2023-12-20T03:07:16;95306.22;;;1.46;83.00
23339;BME280;11841;49.368;20.962;2023-12-20T03:10:02;95307.91;;;1.39;82.88
23339;BME280;11841;49.368;20.962;2023-12-20T03:13:04;95293.19;;;1.38;83.29
23339;BME280;11841;49.368;20.962;2023-12-20T03:15:49;95288.78;;;1.39;83.15
23339;BME280;11841;49.368;20.962;2023-12-20T03:18:34;95285.34;;;1.38;83.15
23339;BME280;11841;49.368;20.962;2023-12-20T03:21:20;95282.06;;;1.44;82.91
23339;BME280;11841;49.368;20.962;2023-12-20T03:24:05;95283.34;;;1.48;83.24
23339;BME280;11841;49.368;20.962;2023-12-20T03:26:51;95274.38;;;1.51;82.89
23339;BME280;11841;49.368;20.962;2023-12-20T03:29:36;95271.28;;;1.47;82.67
23339;BME280;11841;49.368;20.962;2023-12-20T03:32:21;95277.09;;;1.27;82.49
23339;BME280;11841;49.368;20.962;2023-12-20T03:35:07;95280.88;;;1.16;83.39
23339;BME280;11841;49.368;20.962;2023-12-20T03:37:52;95285.69;;;1.04;83.43
23339;BME280;11841;49.368;20.962;2023-12-20T03:40:38;95290.38;;;1.09;83.83
23339;BME280;11841;49.368;20.962;2023-12-20T03:43:24;95288.72;;;1.16;83.43
23339;BME280;11841;49.368;20.962;2023-12-20T03:46:09;95288.69;;;1.24;83.70
23339;BME280;11841;49.368;20.962;2023-12-20T03:48:55;95294.22;;;1.29;83.08
23339;BME280;11841;49.368;20.962;2023-12-20T03:51:40;95291.28;;;1.24;82.77
23339;BME280;11841;49.368;20.962;2023-12-20T03:54:27;95311.56;;;1.14;83.04
23339;BME280;11841;49.368;20.962;2023-12-20T03:57:12;95296.03;;;1.20;82.99
23339;BME280;11841;49.368;20.962;2023-12-20T03:59:57;95295.38;;;1.27;83.10
23339;BME280;11841;49.368;20.962;2023-12-20T04:02:43;95288.03;;;1.30;82.87
23339;BME280;11841;49.368;20.962;2023-12-20T04:05:28;95278.53;;;1.29;82.72
23339;BME280;11841;49.368;20.962;2023-12-20T04:08:13;95273.78;;;1.33;82.71
23339;BME280;11841;49.368;20.962;2023-12-20T04:10:59;95276.69;;;1.38;82.61
23339;BME280;11841;49.368;20.962;2023-12-20T04:13:44;95277.53;;;1.38;82.35
23339;BME280;11841;49.368;20.962;2023-12-20T04:16:30;95285.53;;;1.37;82.43
23339;BME280;11841;49.368;20.962;2023-12-20T04:19:15;95284.84;;;1.12;81.45
23339;BME280;11841;49.368;20.962;2023-12-20T04:22:01;95285.53;;;0.98;82.29
23339;BME280;11841;49.368;20.962;2023-12-20T04:24:46;95286.38;;;0.98;82.89
23339;BME280;11841;49.368;20.962;2023-12-20T04:27:32;95286.69;;;0.95;83.15
23339;BME280;11841;49.368;20.962;2023-12-20T04:30:17;95284.19;;;1.02;83.00
23339;BME280;11841;49.368;20.962;2023-12-20T04:33:02;95275.53;;;1.09;82.76
23339;BME280;11841;49.368;20.962;2023-12-20T04:35:47;95278.94;;;1.18;82.78
23339;BME280;11841;49.368;20.962;2023-12-20T04:38:33;95281.31;;;1.27;82.48
23339;BME280;11841;49.368;20.962;2023-12-20T04:41:18;95273.78;;;1.33;82.09
23339;BME280;11841;49.368;20.962;2023-12-20T04:44:05;95283.09;;;1.35;82.24
23339;BME280;11841;49.368;20.962;2023-12-20T04:46:51;95275.56;;;1.40;82.07
23339;BME280;11841;49.368;20.962;2023-12-20T04:49:36;95283.22;;;1.42;82.00
23339;BME280;11841;49.368;20.962;2023-12-20T04:52:21;95273.13;;;1.39;81.68
23339;BME280;11841;49.368;20.962;2023-12-20T04:55:07;95280.53;;;1.27;81.50
23339;BME280;11841;49.368;20.962;2023-12-20T04:57:53;95278.53;;;1.29;81.99
23339;BME280;11841;49.368;20.962;2023-12-20T05:00:39;95271.34;;;1.31;81.84
23339;BME280;11841;49.368;20.962;2023-12-20T05:03:25;95260.31;;;1.21;82.03
23339;BME280;11841;49.368;20.962;2023-12-20T05:06:10;95268.78;;;1.23;81.76
23339;BME280;11841;49.368;20.962;2023-12-20T05:08:56;95265.19;;;1.24;82.00
23339;BME280;11841;49.368;20.962;2023-12-20T05:11:41;95258.34;;;1.23;81.83
23339;BME280;11841;49.368;20.962;2023-12-20T05:14:26;95250.69;;;1.21;81.88
23339;BME280;11841;49.368;20.962;2023-12-20T05:17:12;95241.06;;;1.22;81.73
23339;BME280;11841;49.368;20.962;2023-12-20T05:19:57;95249.91;;;1.13;81.86
23339;BME280;11841;49.368;20.962;2023-12-20T05:22:42;95245.22;;;1.08;81.89
23339;BME280;11841;49.368;20.962;2023-12-20T05:25:28;95249.59;;;1.08;82.07
23339;BME280;11841;49.368;20.962;2023-12-20T05:28:13;95254.13;;;1.14;82.07
23339;BME280;11841;49.368;20.962;2023-12-20T05:30:58;95255.09;;;1.21;82.03
23339;BME280;11841;49.368;20.962;2023-12-20T05:33:44;95255.38;;;1.26;81.50
23339;BME280;11841;49.368;20.962;2023-12-20T05:36:30;95252.78;;;1.26;81.74
23339;BME280;11841;49.368;20.962;2023-12-20T05:39:15;95258.66;;;1.28;81.41
23339;BME280;11841;49.368;20.962;2023-12-20T05:42:00;95253.25;;;1.30;81.54
23339;BME280;11841;49.368;20.962;2023-12-20T05:44:46;95232.81;;;1.33;81.63
23339;BME280;11841;49.368;20.962;2023-12-20T05:47:33;95242.63;;;1.31;81.38
23339;BME280;11841;49.368;20.962;2023-12-20T05:50:18;95245.72;;;1.35;81.32
23339;BME280;11841;49.368;20.962;2023-12-20T05:53:03;95234.50;;;1.26;81.06
23339;BME280;11841;49.368;20.962;2023-12-20T05:55:49;95223.69;;;1.29;81.17
23339;BME280;11841;49.368;20.962;2023-12-20T05:58:34;95229.56;;;1.31;81.09
23339;BME280;11841;49.368;20.962;2023-12-20T06:01:20;95220.59;;;1.34;80.77
23339;BME280;11841;49.368;20.962;2023-12-20T06:04:05;95213.56;;;1.34;81.07
23339;BME280;11841;49.368;20.962;2023-12-20T06:06:51;95217.81;;;1.35;81.09
23339;BME280;11841;49.368;20.962;2023-12-20T06:09:36;95226.13;;;1.39;80.93
23339;BME280;11841;49.368;20.962;2023-12-20T06:12:21;95217.97;;;1.34;80.57
23339;BME280;11841;49.368;20.962;2023-12-20T06:15:07;95227.59;;;1.33;80.86
23339;BME280;11841;49.368;20.962;2023-12-20T06:17:52;95226.78;;;1.33;80.63
23339;BME280;11841;49.368;20.962;2023-12-20T06:20:38;95228.16;;;0.90;82.07
23339;BME280;11841;49.368;20.962;2023-12-20T06:23:23;95218.88;;;1.18;81.85
23339;BME280;11841;49.368;20.962;2023-12-20T06:26:08;95220.41;;;1.35;80.91
23339;BME280;11841;49.368;20.962;2023-12-20T06:28:54;95225.34;;;1.30;80.48
23339;BME280;11841;49.368;20.962;2023-12-20T06:31:40;95213.91;;;1.31;80.80
23339;BME280;11841;49.368;20.962;2023-12-20T06:34:25;95213.22;;;1.37;80.21
23339;BME280;11841;49.368;20.962;2023-12-20T06:37:10;95210.63;;;1.37;80.16
23339;BME280;11841;49.368;20.962;2023-12-20T06:39:56;95220.75;;;1.32;79.95
23339;BME280;11841;49.368;20.962;2023-12-20T06:42:42;95214.38;;;1.35;80.21
23339;BME280;11841;49.368;20.962;2023-12-20T06:45:42;95222.03;;;1.36;80.09
23339;BME280;11841;49.368;20.962;2023-12-20T06:48:28;95230.50;;;1.38;80.03
23339;BME280;11841;49.368;20.962;2023-12-20T06:51:15;95217.75;;;1.43;80.50
23339;BME280;11841;49.368;20.962;2023-12-20T06:54:01;95224.25;;;1.47;80.30
23339;BME280;11841;49.368;20.962;2023-12-20T06:56:48;95228.53;;;1.40;80.14
23339;BME280;11841;49.368;20.962;2023-12-20T06:59:33;95218.63;;;1.36;80.26
23339;BME280;11841;49.368;20.962;2023-12-20T07:02:18;95230.88;;;1.35;80.57
23339;BME280;11841;49.368;20.962;2023-12-20T07:05:04;95217.44;;;1.38;80.54
23339;BME280;11841;49.368;20.962;2023-12-20T07:07:49;95218.94;;;1.41;80.23
23339;BME280;11841;49.368;20.962;2023-12-20T07:10:35;95228.19;;;1.43;80.36
23339;BME280;11841;49.368;20.962;2023-12-20T07:13:20;95216.59;;;1.46;79.87
23339;BME280;11841;49.368;20.962;2023-12-20T07:16:05;95217.09;;;1.41;80.40
23339;BME280;11841;49.368;20.962;2023-12-20T07:18:51;95195.88;;;1.44;80.07
23339;BME280;11841;49.368;20.962;2023-12-20T07:21:37;95206.94;;;1.46;80.13
23339;BME280;11841;49.368;20.962;2023-12-20T07:24:23;95200.81;;;1.39;79.76
23339;BME280;11841;49.368;20.962;2023-12-20T07:27:08;95183.97;;;1.42;80.15
23339;BME280;11841;49.368;20.962;2023-12-20T07:29:53;95177.59;;;1.44;79.91
23339;BME280;11841;49.368;20.962;2023-12-20T07:32:39;95180.81;;;1.46;80.21
23339;BME280;11841;49.368;20.962;2023-12-20T07:35:24;95200.09;;;1.45;79.75
23339;BME280;11841;49.368;20.962;2023-12-20T07:38:10;95180.34;;;1.43;79.83
23339;BME280;11841;49.368;20.962;2023-12-20T07:40:57;95183.50;;;1.38;80.02
23339;BME280;11841;49.368;20.962;2023-12-20T07:43:42;95178.38;;;1.45;80.06
23339;BME280;11841;49.368;20.962;2023-12-20T07:46:28;95190.00;;;1.42;79.84
23339;BME280;11841;49.368;20.962;2023-12-20T07:49:13;95188.13;;;1.28;80.13
23339;BME280;11841;49.368;20.962;2023-12-20T07:51:58;95178.59;;;1.12;80.45
23339;BME280;11841;49.368;20.962;2023-12-20T07:54:45;95171.75;;;1.11;80.48
23339;BME280;11841;49.368;20.962;2023-12-20T07:57:30;95173.56;;;1.11;80.72
23339;BME280;11841;49.368;20.962;2023-12-20T08:00:16;95164.06;;;1.18;80.77
23339;BME280;11841;49.368;20.962;2023-12-20T08:03:01;95158.53;;;1.13;80.43
23339;BME280;11841;49.368;20.962;2023-12-20T08:05:48;95147.38;;;1.19;80.71
23339;BME280;11841;49.368;20.962;2023-12-20T08:08:34;95147.84;;;1.22;80.47
23339;BME280;11841;49.368;20.962;2023-12-20T08:11:19;95139.38;;;1.20;80.60
23339;BME280;11841;49.368;20.962;2023-12-20T08:14:05;95141.13;;;1.28;80.65
23339;BME280;11841;49.368;20.962;2023-12-20T08:16:50;95144.69;;;1.35;80.65
23339;BME280;11841;49.368;20.962;2023-12-20T08:19:36;95138.34;;;1.30;80.44
23339;BME280;11841;49.368;20.962;2023-12-20T08:22:21;95143.47;;;1.23;80.31
23339;BME280;11841;49.368;20.962;2023-12-20T08:25:07;95145.31;;;1.14;80.86
23339;BME280;11841;49.368;20.962;2023-12-20T08:27:52;95144.94;;;1.17;81.06
23339;BME280;11841;49.368;20.962;2023-12-20T08:30:37;95154.84;;;1.30;80.94
23339;BME280;11841;49.368;20.962;2023-12-20T08:33:23;95152.81;;;1.40;80.79
23339;BME280;11841;49.368;20.962;2023-12-20T08:36:08;95149.19;;;1.41;80.68
23339;BME280;11841;49.368;20.962;2023-12-20T08:38:54;95165.50;;;1.43;80.74
23339;BME280;11841;49.368;20.962;2023-12-20T08:41:40;95150.94;;;1.49;80.68
23339;BME280;11841;49.368;20.962;2023-12-20T08:44:26;95150.06;;;1.56;80.84
23339;BME280;11841;49.368;20.962;2023-12-20T08:47:11;95138.72;;;1.49;80.62
23339;BME280;11841;49.368;20.962;2023-12-20T08:49:58;95134.53;;;1.40;80.67
23339;BME280;11841;49.368;20.962;2023-12-20T08:52:46;95127.78;;;1.46;80.89
23339;BME280;11841;49.368;20.962;2023-12-20T08:55:31;95131.66;;;1.87;79.59
23339;BME280;11841;49.368;20.962;2023-12-20T08:58:17;95125.47;;;2.02;79.10
23339;BME280;11841;49.368;20.962;2023-12-20T09:01:02;95108.00;;;2.17;78.48
23339;BME280;11841;49.368;20.962;2023-12-20T09:03:47;95129.56;;;2.19;78.34
23339;BME280;11841;49.368;20.962;2023-12-20T09:06:33;95117.38;;;2.26;77.99
23339;BME280;11841;49.368;20.962;2023-12-20T09:09:19;95125.50;;;2.31;78.00
23339;BME280;11841;49.368;20.962;2023-12-20T09:12:05;95111.88;;;2.36;78.23
23339;BME280;11841;49.368;20.962;2023-12-20T09:14:51;95116.59;;;2.40;78.04
23339;BME280;11841;49.368;20.962;2023-12-20T09:17:37;95109.97;;;2.44;78.16
23339;BME280;11841;49.368;20.962;2023-12-20T09:20:22;95102.75;;;2.46;78.62
23339;BME280;11841;49.368;20.962;2023-12-20T09:23:08;95119.28;;;2.47;78.54
23339;BME280;11841;49.368;20.962;2023-12-20T09:25:54;95094.81;;;2.55;78.25
23339;BME280;11841;49.368;20.962;2023-12-20T09:28:42;95095.44;;;2.57;78.20
23339;BME280;11841;49.368;20.962;2023-12-20T09:31:27;95113.50;;;2.52;78.87
23339;BME280;11841;49.368;20.962;2023-12-20T09:34:15;95080.56;;;2.57;78.38
23339;BME280;11841;49.368;20.962;2023-12-20T09:37:00;95095.81;;;2.54;78.83
23339;BME280;11841;49.368;20.962;2023-12-20T09:39:46;95084.00;;;2.58;78.73
23339;BME280;11841;49.368;20.962;2023-12-20T09:42:56;95079.66;;;2.65;78.54
23339;BME280;11841;49.368;20.962;2023-12-20T09:45:46;95070.78;;;2.66;78.52
23339;BME280;11841;49.368;20.962;2023-12-20T09:48:32;95072.66;;;2.72;78.80
23339;BME280;11841;49.368;20.962;2023-12-20T09:51:19;95069.78;;;2.16;80.26
23339;BME280;11841;49.368;20.962;2023-12-20T09:54:05;95055.34;;;2.06;80.96
23339;BME280;11841;49.368;20.962;2023-12-20T09:56:50;95049.03;;;2.00;81.94
23339;BME280;11841;49.368;20.962;2023-12-20T09:59:36;95064.38;;;2.03;81.73
23339;BME280;11841;49.368;20.962;2023-12-20T10:02:25;95060.31;;;2.15;81.81
23339;BME280;11841;49.368;20.962;2023-12-20T10:05:16;95053.97;;;2.24;81.81
23339;BME280;11841;49.368;20.962;2023-12-20T10:08:04;95049.28;;;2.34;81.68
23339;BME280;11841;49.368;20.962;2023-12-20T10:10:50;95045.69;;;2.35;81.77
23339;BME280;11841;49.368;20.962;2023-12-20T10:13:39;95052.06;;;2.33;82.30
23339;BME280;11841;49.368;20.962;2023-12-20T10:16:26;95043.84;;;2.36;82.09
23339;BME280;11841;49.368;20.962;2023-12-20T10:19:12;95028.88;;;2.44;82.13
23339;BME280;11841;49.368;20.962;2023-12-20T10:21:59;95033.66;;;2.56;82.00
23339;BME280;11841;49.368;20.962;2023-12-20T10:24:45;95016.03;;;2.64;81.90
23339;BME280;11841;49.368;20.962;2023-12-20T10:27:31;95023.06;;;2.64;81.49
23339;BME280;11841;49.368;20.962;2023-12-20T10:30:17;95030.19;;;2.70;81.95
23339;BME280;11841;49.368;20.962;2023-12-20T10:33:02;95032.69;;;2.78;81.59
23339;BME280;11841;49.368;20.962;2023-12-20T10:35:48;95035.56;;;2.83;81.28
23339;BME280;11841;49.368;20.962;2023-12-20T10:38:34;95034.94;;;2.81;81.43
23339;BME280;11841;49.368;20.962;2023-12-20T10:41:25;95038.19;;;2.83;81.48
23339;BME280;11841;49.368;20.962;2023-12-20T10:44:10;95034.34;;;2.85;81.03
23339;BME280;11841;49.368;20.962;2023-12-20T10:46:56;95030.69;;;2.80;81.08
23339;BME280;11841;49.368;20.962;2023-12-20T10:49:44;95021.28;;;2.85;81.42
23339;BME280;11841;49.368;20.962;2023-12-20T10:52:32;95016.91;;;2.92;81.78
23339;BME280;11841;49.368;20.962;2023-12-20T10:55:17;95014.69;;;2.89;81.01
23339;BME280;11841;49.368;20.962;2023-12-20T10:58:13;95002.88;;;2.79;81.25
23339;BME280;11841;49.368;20.962;2023-12-20T11:01:00;95014.22;;;2.86;81.56
23339;BME280;11841;49.368;20.962;2023-12-20T11:03:52;95010.00;;;2.85;81.50
23339;BME280;11841;49.368;20.962;2023-12-20T11:06:58;95005.66;;;2.92;81.68
23339;BME280;11841;49.368;20.962;2023-12-20T11:09:56;94995.88;;;3.00;81.02
23339;BME280;11841;49.368;20.962;2023-12-20T11:12:53;94997.09;;;3.04;81.17
23339;BME280;11841;49.368;20.962;2023-12-20T11:15:40;94985.69;;;3.12;81.17
23339;BME280;11841;49.368;20.962;2023-12-20T11:18:29;94981.09;;;3.14;81.40
23339;BME280;11841;49.368;20.962;2023-12-20T11:21:15;94974.06;;;3.21;81.30
23339;BME280;11841;49.368;20.962;2023-12-20T11:24:01;94977.69;;;3.20;81.19
23339;BME280;11841;49.368;20.962;2023-12-20T11:26:47;94984.28;;;3.16;81.07
23339;BME280;11841;49.368;20.962;2023-12-20T11:29:37;94980.69;;;3.17;81.12
23339;BME280;11841;49.368;20.962;2023-12-20T11:38:00;94959.63;;;3.31;81.53
23339;BME280;11841;49.368;20.962;2023-12-20T11:40:48;94957.84;;;3.32;81.47
23339;BME280;11841;49.368;20.962;2023-12-20T11:43:38;94969.06;;;3.26;80.78
23339;BME280;11841;49.368;20.962;2023-12-20T11:46:23;94952.13;;;3.22;81.74
23339;BME280;11841;49.368;20.962;2023-12-20T11:49:09;94962.59;;;3.22;81.66
23339;BME280;11841;49.368;20.962;2023-12-20T11:51:54;94969.34;;;3.31;81.28
23339;BME280;11841;49.368;20.962;2023-12-20T11:54:39;94967.53;;;3.38;81.85
23339;BME280;11841;49.368;20.962;2023-12-20T11:57:25;94969.00;;;3.40;81.63
23339;BME280;11841;49.368;20.962;2023-12-20T12:00:13;94968.59;;;3.43;81.50
23339;BME280;11841;49.368;20.962;2023-12-20T12:02:59;94969.19;;;3.39;81.20
23339;BME280;11841;49.368;20.962;2023-12-20T12:05:47;94976.81;;;3.34;81.31
23339;BME280;11841;49.368;20.962;2023-12-20T12:08:32;94968.78;;;3.42;81.89
23339;BME280;11841;49.368;20.962;2023-12-20T12:11:18;94967.03;;;3.49;81.36
23339;BME280;11841;49.368;20.962;2023-12-20T12:14:04;94953.78;;;3.57;80.65
23339;BME280;11841;49.368;20.962;2023-12-20T12:16:49;94953.97;;;3.55;81.00
23339;BME280;11841;49.368;20.962;2023-12-20T12:19:35;94959.56;;;3.46;81.13
23339;BME280;11841;49.368;20.962;2023-12-20T12:22:22;94958.13;;;3.43;80.99
23339;BME280;11841;49.368;20.962;2023-12-20T12:25:13;94956.50;;;3.42;81.30
23339;BME280;11841;49.368;20.962;2023-12-20T12:27:59;94951.69;;;3.46;81.48
23339;BME280;11841;49.368;20.962;2023-12-20T12:30:56;94960.00;;;3.49;81.51
23339;BME280;11841;49.368;20.962;2023-12-20T12:33:42;94954.56;;;3.51;81.34
23339;BME280;11841;49.368;20.962;2023-12-20T12:36:29;94947.13;;;3.54;81.12
23339;BME280;11841;49.368;20.962;2023-12-20T12:39:16;94957.97;;;3.51;81.53
23339;BME280;11841;49.368;20.962;2023-12-20T12:42:02;94957.53;;;3.48;81.82
23339;BME280;11841;49.368;20.962;2023-12-20T12:44:47;94951.31;;;3.49;81.99
23339;BME280;11841;49.368;20.962;2023-12-20T12:47:34;94952.28;;;3.48;81.31
23339;BME280;11841;49.368;20.962;2023-12-20T12:50:20;94954.69;;;3.43;81.82
23339;BME280;11841;49.368;20.962;2023-12-20T12:53:06;94958.13;;;3.43;81.92
23339;BME280;11841;49.368;20.962;2023-12-20T12:55:51;94966.38;;;3.40;82.19
23339;BME280;11841;49.368;20.962;2023-12-20T12:58:37;94961.13;;;3.40;82.26
23339;BME280;11841;49.368;20.962;2023-12-20T13:01:22;94960.75;;;3.43;81.88
23339;BME280;11841;49.368;20.962;2023-12-20T13:04:08;94955.53;;;3.50;82.10
23339;BME280;11841;49.368;20.962;2023-12-20T13:06:56;94962.78;;;3.48;81.99
23339;BME280;11841;49.368;20.962;2023-12-20T13:09:42;94962.78;;;3.48;82.12
23339;BME280;11841;49.368;20.962;2023-12-20T13:12:27;94959.59;;;3.52;81.64
23339;BME280;11841;49.368;20.962;2023-12-20T13:15:13;94961.59;;;3.50;82.07
23339;BME280;11841;49.368;20.962;2023-12-20T13:17:59;94961.41;;;3.52;81.99
23339;BME280;11841;49.368;20.962;2023-12-20T13:20:45;94968.25;;;3.53;81.56
23339;BME280;11841;49.368;20.962;2023-12-20T13:23:31;94968.03;;;3.48;81.92
23339;BME280;11841;49.368;20.962;2023-12-20T13:26:16;94971.47;;;3.48;81.54
23339;BME280;11841;49.368;20.962;2023-12-20T13:29:02;94968.25;;;3.53;81.64
23339;BME280;11841;49.368;20.962;2023-12-20T13:31:48;94974.91;;;3.49;81.98
23339;BME280;11841;49.368;20.962;2023-12-20T13:34:34;94985.00;;;3.52;82.35
23339;BME280;11841;49.368;20.962;2023-12-20T13:37:20;94978.72;;;3.53;81.87
23339;BME280;11841;49.368;20.962;2023-12-20T13:40:06;94977.38;;;3.57;82.10
23339;BME280;11841;49.368;20.962;2023-12-20T13:42:51;94986.47;;;3.61;82.19
23339;BME280;11841;49.368;20.962;2023-12-20T13:45:37;94990.66;;;3.55;81.85
23339;BME280;11841;49.368;20.962;2023-12-20T13:48:22;94982.13;;;3.47;82.53
23339;BME280;11841;49.368;20.962;2023-12-20T13:51:08;94986.19;;;3.49;82.69
23339;BME280;11841;49.368;20.962;2023-12-20T13:53:53;94985.19;;;3.50;82.64
23339;BME280;11841;49.368;20.962;2023-12-20T13:56:39;94982.72;;;3.42;83.59
23339;BME280;11841;49.368;20.962;2023-12-20T13:59:40;94973.25;;;3.48;83.37
23339;BME280;11841;49.368;20.962;2023-12-20T14:02:25;94974.94;;;3.55;83.25
23339;BME280;11841;49.368;20.962;2023-12-20T14:05:11;94976.38;;;3.58;83.10
23339;BME280;11841;49.368;20.962;2023-12-20T14:07:59;94974.00;;;3.63;83.48
23339;BME280;11841;49.368;20.962;2023-12-20T14:10:44;94972.97;;;3.64;83.07
23339;BME280;11841;49.368;20.962;2023-12-20T14:13:29;94981.06;;;3.69;83.31
23339;BME280;11841;49.368;20.962;2023-12-20T14:16:15;94984.88;;;3.66;82.88
23339;BME280;11841;49.368;20.962;2023-12-20T14:19:01;94988.72;;;3.64;83.90
23339;BME280;11841;49.368;20.962;2023-12-20T14:21:48;94991.94;;;3.66;83.17
23339;BME280;11841;49.368;20.962;2023-12-20T14:24:35;94983.25;;;3.65;83.58
23339;BME280;11841;49.368;20.962;2023-12-20T14:27:20;94991.09;;;3.59;83.94
23339;BME280;11841;49.368;20.962;2023-12-20T14:30:09;94979.81;;;3.65;84.16
23339;BME280;11841;49.368;20.962;2023-12-20T14:32:55;94987.69;;;3.65;83.71
23339;BME280;11841;49.368;20.962;2023-12-20T14:35:40;94990.69;;;3.62;83.74
23339;BME280;11841;49.368;20.962;2023-12-20T14:38:29;94994.97;;;3.63;84.01
23339;BME280;11841;49.368;20.962;2023-12-20T14:41:14;94991.31;;;3.64;83.99
23339;BME280;11841;49.368;20.962;2023-12-20T14:44:00;94987.88;;;3.63;84.36
23339;BME280;11841;49.368;20.962;2023-12-20T14:46:45;94995.34;;;3.66;84.79